createdAt,value
2022-11-25T00:04:19.356Z,-0.60
2022-11-25T00:09:18.643Z,-0.60
2022-11-25T00:14:18.363Z,-0.54
2022-11-25T00:19:17.949Z,-0.52
2022-11-25T00:24:19.375Z,-0.60
2022-11-25T00:29:18.432Z,-0.50
2022-11-25T00:34:18.068Z,-0.46
2022-11-25T00:39:20.181Z,-0.40
2022-11-25T00:44:37.719Z,-0.38
2022-11-25T00:49:37.611Z,-0.30
2022-11-25T00:54:37.670Z,-0.30
2022-11-25T00:59:37.092Z,-0.24
2022-11-25T01:04:36.832Z,-0.20
2022-11-25T01:09:36.343Z,-0.18
2022-11-25T01:14:37.003Z,-0.10
2022-11-25T01:19:40.597Z,-0.10
2022-11-25T01:24:40.484Z,-0.10
2022-11-25T01:29:41.563Z,-0.08
2022-11-25T01:34:40.716Z,-0.06
2022-11-25T01:39:39.940Z,-0.10
2022-11-25T01:44:44.330Z,-0.10
2022-11-25T01:49:50.456Z,-0.08
2022-11-25T01:54:57.972Z,-0.02
2022-11-25T02:00:04.142Z,-0.02
2022-11-25T02:05:05.450Z,0.00
2022-11-25T02:10:08.660Z,-0.02
2022-11-25T02:15:13.864Z,0.00
2022-11-25T02:20:17.508Z,0.00
2022-11-25T02:25:24.465Z,0.00
2022-11-25T02:30:24.346Z,0.00
2022-11-25T02:35:44.689Z,0.00
2022-11-25T02:40:50.155Z,0.10
2022-11-25T02:46:09.250Z,0.10
2022-11-25T02:51:12.025Z,0.10
2022-11-25T02:56:14.056Z,0.10
2022-11-25T03:01:13.672Z,0.10
2022-11-25T03:06:13.143Z,0.10
2022-11-25T03:11:12.371Z,0.10
2022-11-25T03:16:12.656Z,0.10
2022-11-25T03:21:11.550Z,0.10
2022-11-25T03:26:12.064Z,0.10
2022-11-25T03:31:14.621Z,0.10
2022-11-25T03:36:14.798Z,0.10
2022-11-25T03:41:14.662Z,0.10
2022-11-25T03:46:17.284Z,0.10
2022-11-25T03:51:16.997Z,0.10
2022-11-25T03:56:16.168Z,0.12
2022-11-25T04:01:15.737Z,0.12
2022-11-25T04:06:16.087Z,0.18
2022-11-25T04:11:16.959Z,0.20
2022-11-25T04:16:28.123Z,0.20
2022-11-25T04:21:27.723Z,0.20
2022-11-25T04:26:27.511Z,0.20
2022-11-25T04:31:26.457Z,0.20
2022-11-25T04:36:25.912Z,0.20
2022-11-25T04:41:25.719Z,0.26
2022-11-25T04:46:31.903Z,0.30
2022-11-25T04:51:32.291Z,0.30
2022-11-25T04:56:39.043Z,0.30
2022-11-25T05:01:38.447Z,0.30
2022-11-25T05:06:47.800Z,0.30
2022-11-25T05:11:47.889Z,0.30
2022-11-25T05:16:47.128Z,0.30
2022-11-25T05:21:46.436Z,0.30
2022-11-25T05:26:45.853Z,0.30
2022-11-25T05:31:44.761Z,0.40
2022-11-25T05:36:45.249Z,0.40
2022-11-25T05:41:44.674Z,0.40
2022-11-25T05:46:45.392Z,0.40
2022-11-25T05:51:49.237Z,0.36
2022-11-25T05:56:52.561Z,0.30
2022-11-25T06:02:03.304Z,0.36
2022-11-25T06:07:02.523Z,0.38
2022-11-25T06:12:02.208Z,0.40
2022-11-25T06:17:00.975Z,0.40
2022-11-25T06:22:06.822Z,0.40
2022-11-25T06:27:07.981Z,0.40
2022-11-25T06:32:07.708Z,0.40
2022-11-25T06:37:14.505Z,0.40
2022-11-25T06:42:14.534Z,0.40
2022-11-25T06:47:13.618Z,0.50
2022-11-25T06:52:14.755Z,0.50
2022-11-25T06:57:17.823Z,0.58
2022-11-25T07:02:17.746Z,0.60
2022-11-25T07:07:17.100Z,0.60
2022-11-25T07:12:16.397Z,0.68
2022-11-25T07:17:15.691Z,0.70
2022-11-25T07:22:14.935Z,0.70
2022-11-25T07:27:14.328Z,0.70
2022-11-25T07:32:13.765Z,0.70
2022-11-25T07:37:13.428Z,0.70
2022-11-25T07:42:12.381Z,0.70
2022-11-25T07:47:11.167Z,0.80
2022-11-25T07:52:11.143Z,0.80
2022-11-25T07:57:09.952Z,0.80
2022-11-25T08:02:10.840Z,0.80
2022-11-25T08:07:12.055Z,0.80
2022-11-25T08:12:11.925Z,0.82
2022-11-25T08:17:11.310Z,0.90
2022-11-25T08:22:10.035Z,0.90
2022-11-25T08:27:09.529Z,0.92
2022-11-25T08:32:11.973Z,0.98
2022-11-25T08:37:11.472Z,1.00
2022-11-25T08:42:10.897Z,1.00
2022-11-25T08:47:10.363Z,1.00
2022-11-25T08:52:09.484Z,1.00
2022-11-25T08:57:08.583Z,1.00
2022-11-25T09:02:09.819Z,1.00
2022-11-25T09:07:09.941Z,1.00
2022-11-25T09:12:10.092Z,1.10
2022-11-25T09:17:15.615Z,1.00
2022-11-25T09:22:13.914Z,1.08
2022-11-25T09:27:13.708Z,1.10
2022-11-25T09:32:12.453Z,1.20
2022-11-25T09:37:12.657Z,1.20
2022-11-25T09:42:52.134Z,1.30
2022-11-25T09:48:02.179Z,1.40
2022-11-25T09:53:18.651Z,1.46
2022-11-25T09:58:32.001Z,1.50
2022-11-25T10:03:40.319Z,1.60
2022-11-25T10:08:45.409Z,1.60
2022-11-25T10:13:54.265Z,1.60
2022-11-25T10:19:00.976Z,1.60
2022-11-25T10:23:59.654Z,1.60
2022-11-25T10:29:23.792Z,1.58
2022-11-25T10:34:31.621Z,1.50
2022-11-25T10:39:36.040Z,1.50
2022-11-25T10:44:37.890Z,1.50
2022-11-25T10:49:51.889Z,1.50
2022-11-25T10:55:10.627Z,1.50
2022-11-25T11:00:28.812Z,1.60
2022-11-25T11:05:32.268Z,1.60
2022-11-25T11:10:31.592Z,1.60
2022-11-25T11:15:33.911Z,1.60
2022-11-25T11:20:35.543Z,1.60
2022-11-25T11:25:39.457Z,1.60
2022-11-25T11:30:57.861Z,1.60
2022-11-25T11:36:11.876Z,1.60
2022-11-25T11:41:23.595Z,1.60
2022-11-25T11:46:50.287Z,1.64
2022-11-25T11:51:55.493Z,1.70
2022-11-25T11:57:02.469Z,1.70
2022-11-25T12:02:29.862Z,1.70
2022-11-25T12:07:38.981Z,1.80
2022-11-25T12:12:46.836Z,1.80
2022-11-25T12:17:54.427Z,1.82
2022-11-25T12:23:02.794Z,1.90
2022-11-25T12:28:12.650Z,1.90
2022-11-25T12:33:21.764Z,1.90
2022-11-25T12:38:31.543Z,1.94
2022-11-25T12:43:40.959Z,2.00
2022-11-25T12:48:44.015Z,1.96
2022-11-25T12:53:55.647Z,1.96
2022-11-25T12:59:16.526Z,1.92
2022-11-25T13:04:47.606Z,1.90
2022-11-25T13:10:39.391Z,1.90
2022-11-25T13:15:44.644Z,1.90
2022-11-25T13:20:58.785Z,1.80
2022-11-25T13:26:50.099Z,1.80
2022-11-25T13:32:02.239Z,1.74
2022-11-25T13:37:04.233Z,1.70
2022-11-25T13:42:19.518Z,1.70
2022-11-25T13:47:40.542Z,1.78
2022-11-25T13:52:50.574Z,1.70
2022-11-25T13:58:02.421Z,1.70
2022-11-25T14:03:50.630Z,1.70
2022-11-25T14:09:07.552Z,1.70
2022-11-25T14:14:28.648Z,1.70
2022-11-25T14:20:15.314Z,1.64
2022-11-25T14:25:26.845Z,1.64
2022-11-25T14:30:26.725Z,1.70
2022-11-25T14:35:34.098Z,1.70
2022-11-25T14:40:40.999Z,1.70
2022-11-25T14:45:40.704Z,1.70
2022-11-25T14:50:40.777Z,1.74
2022-11-25T14:55:40.962Z,1.74
2022-11-25T15:01:02.865Z,1.70
2022-11-25T15:06:06.199Z,1.70
2022-11-25T15:11:12.066Z,1.70
2022-11-25T15:16:17.346Z,1.70
2022-11-25T15:21:25.312Z,1.60
2022-11-25T15:26:27.867Z,1.60
2022-11-25T15:31:33.232Z,1.60
2022-11-25T15:36:33.359Z,1.60
2022-11-25T15:41:38.733Z,1.60
2022-11-25T15:46:42.868Z,1.60
2022-11-25T15:51:51.053Z,1.60
2022-11-25T15:56:55.425Z,1.60
2022-11-25T16:01:54.964Z,1.60
2022-11-25T16:07:02.718Z,1.66
2022-11-25T16:12:20.569Z,1.66
2022-11-25T16:17:19.484Z,1.70
2022-11-25T16:22:23.731Z,1.64
2022-11-25T16:27:29.645Z,1.60
2022-11-25T16:32:32.511Z,1.60
2022-11-25T16:37:32.916Z,1.60
2022-11-25T16:42:32.016Z,1.60
2022-11-25T16:47:31.107Z,1.60
2022-11-25T16:52:30.479Z,1.60
2022-11-25T16:57:29.854Z,1.60
2022-11-25T17:02:30.464Z,1.60
2022-11-25T17:07:34.377Z,1.70
2022-11-25T17:12:40.699Z,1.70
2022-11-25T17:17:42.646Z,1.70
2022-11-25T17:22:42.583Z,1.70
2022-11-25T17:27:43.730Z,1.70
2022-11-25T17:32:42.919Z,1.70
2022-11-25T17:37:43.094Z,1.70
2022-11-25T17:42:43.484Z,1.72
2022-11-25T17:47:45.940Z,1.80
2022-11-25T17:52:46.320Z,1.80
2022-11-25T17:57:46.741Z,1.80
2022-11-25T18:02:46.133Z,1.80
2022-11-25T18:07:50.183Z,1.80
2022-11-25T18:12:53.119Z,1.78
2022-11-25T18:17:56.217Z,1.76
2022-11-25T18:22:57.640Z,1.78
2022-11-25T18:28:02.500Z,1.70
2022-11-25T18:33:05.774Z,1.70
2022-11-25T18:38:05.691Z,1.70
2022-11-25T18:43:08.725Z,1.70
2022-11-25T18:48:19.420Z,1.70
2022-11-25T18:53:20.722Z,1.62
2022-11-25T18:58:24.436Z,1.60
2022-11-25T19:03:27.229Z,1.60
2022-11-25T19:08:27.173Z,1.60
2022-11-25T19:13:33.630Z,1.60
2022-11-25T19:18:36.998Z,1.60
2022-11-25T19:23:36.631Z,1.50
2022-11-25T19:28:37.725Z,1.50
2022-11-25T19:33:47.349Z,1.50
2022-11-25T19:38:49.933Z,1.50
2022-11-25T19:43:49.314Z,1.50
2022-11-25T19:48:49.313Z,1.50
2022-11-25T19:53:51.197Z,1.52
2022-11-25T19:58:53.134Z,1.60
2022-11-25T20:03:55.711Z,1.60
2022-11-25T20:09:01.224Z,1.60
2022-11-25T20:14:05.707Z,1.62
2022-11-25T20:19:07.106Z,1.70
2022-11-25T20:24:13.393Z,1.70
2022-11-25T20:29:24.523Z,1.70
2022-11-25T20:34:31.444Z,1.70
2022-11-25T20:39:33.752Z,1.70
2022-11-25T20:44:46.656Z,1.70
2022-11-25T20:49:48.044Z,1.70
2022-11-25T20:54:48.423Z,1.70
2022-11-25T20:59:53.546Z,1.70
2022-11-25T21:04:52.727Z,1.78
2022-11-25T21:09:54.046Z,1.80
2022-11-25T21:14:53.516Z,1.80
2022-11-25T21:19:53.389Z,1.80
2022-11-25T21:24:53.515Z,1.90
2022-11-25T21:29:54.379Z,1.90
2022-11-25T21:34:55.686Z,1.90
2022-11-25T21:39:56.029Z,1.90
2022-11-25T21:45:04.230Z,1.90
2022-11-25T21:50:33.421Z,1.92
2022-11-25T21:55:37.983Z,2.00
2022-11-25T22:00:38.693Z,2.00
2022-11-25T22:05:37.728Z,2.00
2022-11-25T22:10:38.845Z,2.00
2022-11-25T22:15:40.454Z,2.00
2022-11-25T22:20:41.218Z,2.00
2022-11-25T22:25:40.600Z,2.00
2022-11-25T22:30:39.535Z,2.00
2022-11-25T22:35:38.176Z,2.00
2022-11-25T22:40:39.038Z,2.00
2022-11-25T22:45:39.850Z,2.00
2022-11-25T22:50:39.902Z,2.00
2022-11-25T22:55:38.362Z,2.00
2022-11-25T23:00:42.685Z,1.90
2022-11-25T23:05:44.396Z,1.90
2022-11-25T23:10:44.031Z,1.90
2022-11-25T23:15:48.882Z,1.90
2022-11-25T23:20:49.688Z,1.80
2022-11-25T23:25:50.073Z,1.80
2022-11-25T23:30:53.313Z,1.80
2022-11-25T23:35:54.120Z,1.84
2022-11-25T23:40:53.424Z,1.90
2022-11-25T23:45:56.941Z,1.90
2022-11-25T23:50:58.541Z,1.90
2022-11-25T23:56:00.397Z,1.90
